createdAt,value
2023-05-25T00:01:03.103Z,14.21
2023-05-25T00:06:07.355Z,14.17
2023-05-25T00:11:10.002Z,14.26
2023-05-25T00:16:12.625Z,14.13
2023-05-25T00:21:16.286Z,13.90
2023-05-25T00:26:19.037Z,13.93
2023-05-25T00:31:21.919Z,13.90
2023-05-25T00:36:24.909Z,13.99
2023-05-25T00:41:28.631Z,13.81
2023-05-25T00:46:34.467Z,13.68
2023-05-25T00:51:38.470Z,13.72
2023-05-25T00:56:50.978Z,13.83
2023-05-25T01:01:55.637Z,13.79
2023-05-25T01:07:01.331Z,13.80
2023-05-25T01:12:04.621Z,13.80
2023-05-25T01:17:10.713Z,13.66
2023-05-25T01:22:22.296Z,13.83
2023-05-25T01:27:32.674Z,13.72
2023-05-25T01:32:37.503Z,13.70
2023-05-25T01:37:46.969Z,13.76
2023-05-25T01:42:49.772Z,13.78
2023-05-25T01:47:58.541Z,14.07
2023-05-25T01:53:09.854Z,14.29
2023-05-25T01:58:15.630Z,14.58
2023-05-25T02:03:20.145Z,15.36
2023-05-25T02:08:24.541Z,16.97
2023-05-25T02:13:27.387Z,17.40
2023-05-25T02:18:30.475Z,17.23
2023-05-25T02:23:33.078Z,17.10
2023-05-25T02:28:35.638Z,18.05
2023-05-25T02:33:38.197Z,20.11
2023-05-25T02:38:41.025Z,22.75
2023-05-25T02:43:43.680Z,23.26
2023-05-25T02:48:47.417Z,24.16
2023-05-25T02:53:50.318Z,24.72
2023-05-25T02:58:53.181Z,23.66
2023-05-25T03:04:08.905Z,22.15
2023-05-25T03:09:13.450Z,20.70
2023-05-25T03:14:16.990Z,20.21
2023-05-25T03:19:26.485Z,19.73
2023-05-25T03:24:29.260Z,19.21
2023-05-25T03:29:35.866Z,19.17
2023-05-25T03:34:40.529Z,18.95
2023-05-25T03:39:45.077Z,19.03
2023-05-25T03:44:48.088Z,19.01
2023-05-25T03:49:51.168Z,18.92
2023-05-25T03:54:54.839Z,19.06
2023-05-25T03:59:57.736Z,19.03
2023-05-25T04:05:00.548Z,19.18
2023-05-25T04:10:07.408Z,19.49
2023-05-25T04:15:12.397Z,19.65
2023-05-25T04:20:26.115Z,19.69
2023-05-25T04:25:29.706Z,20.10
2023-05-25T04:30:35.823Z,20.04
2023-05-25T04:35:44.221Z,20.27
2023-05-25T04:40:47.236Z,20.23
2023-05-25T04:45:51.425Z,20.26
2023-05-25T04:50:58.170Z,20.60
2023-05-25T04:56:01.324Z,21.03
2023-05-25T05:01:04.507Z,21.13
2023-05-25T05:06:07.675Z,21.03
2023-05-25T05:11:10.721Z,20.76
2023-05-25T05:16:13.489Z,20.98
2023-05-25T05:21:16.383Z,20.54
2023-05-25T05:26:19.878Z,20.48
2023-05-25T05:31:27.476Z,20.29
2023-05-25T05:36:30.372Z,20.39
2023-05-25T05:41:33.089Z,20.10
2023-05-25T05:46:36.454Z,20.23
2023-05-25T05:51:39.153Z,19.87
2023-05-25T05:56:43.133Z,19.87
2023-05-25T06:01:45.936Z,19.96
2023-05-25T06:06:49.415Z,20.07
2023-05-25T06:11:52.493Z,20.24
2023-05-25T06:16:55.431Z,20.41
2023-05-25T06:22:00.715Z,20.45
2023-05-25T06:27:03.741Z,20.56
2023-05-25T06:32:06.996Z,20.40
2023-05-25T06:37:09.873Z,20.26
2023-05-25T06:42:12.942Z,20.30
2023-05-25T06:47:26.513Z,20.45
2023-05-25T06:52:29.345Z,20.53
2023-05-25T06:57:32.064Z,20.30
2023-05-25T07:02:35.257Z,20.13
2023-05-25T07:07:37.878Z,20.06
2023-05-25T07:12:40.538Z,20.22
2023-05-25T07:17:43.230Z,20.43
2023-05-25T07:22:47.395Z,20.40
2023-05-25T07:27:50.486Z,20.18
2023-05-25T07:32:53.556Z,20.32
2023-05-25T07:38:00.340Z,20.20
2023-05-25T07:43:02.953Z,19.66
2023-05-25T07:48:07.807Z,19.65
2023-05-25T07:53:10.536Z,19.49
2023-05-25T07:58:13.079Z,19.37
2023-05-25T08:03:15.687Z,19.36
2023-05-25T08:08:19.355Z,19.61
2023-05-25T08:13:21.985Z,19.40
2023-05-25T08:18:24.621Z,19.24
2023-05-25T08:23:27.419Z,19.05
2023-05-25T08:28:30.040Z,18.85
2023-05-25T08:33:32.648Z,18.98
2023-05-25T08:38:35.265Z,19.01
2023-05-25T08:43:37.959Z,18.92
2023-05-25T08:48:42.865Z,18.94
2023-05-25T08:53:46.228Z,18.95
2023-05-25T08:59:29.166Z,19.09
2023-05-25T09:04:34.579Z,18.89
2023-05-25T09:09:39.735Z,18.88
2023-05-25T09:14:47.999Z,18.95
2023-05-25T09:19:51.401Z,18.84
2023-05-25T09:24:55.088Z,18.79
2023-05-25T09:30:01.235Z,18.70
2023-05-25T09:35:14.017Z,18.69
2023-05-25T09:40:17.729Z,18.97
2023-05-25T09:45:23.170Z,19.09
2023-05-25T09:50:29.685Z,19.16
2023-05-25T09:55:44.415Z,19.10
2023-05-25T10:00:55.504Z,18.98
2023-05-25T10:05:58.280Z,19.10
2023-05-25T10:11:02.002Z,19.09
2023-05-25T10:16:06.080Z,19.22
2023-05-25T10:21:10.756Z,19.49
2023-05-25T10:26:19.119Z,19.61
2023-05-25T10:31:22.075Z,19.55
2023-05-25T10:36:25.808Z,19.44
2023-05-25T10:41:28.460Z,19.85
2023-05-25T10:46:31.242Z,20.12
2023-05-25T10:51:41.323Z,20.08
2023-05-25T10:57:10.275Z,20.00
2023-05-25T11:02:13.050Z,19.82
2023-05-25T11:07:18.635Z,19.63
2023-05-25T11:12:22.615Z,19.36
2023-05-25T11:17:27.626Z,19.16
2023-05-25T11:22:37.908Z,19.13
2023-05-25T11:27:46.749Z,19.41
2023-05-25T11:32:50.864Z,19.52
2023-05-25T11:37:53.767Z,19.56
2023-05-25T11:43:00.645Z,19.56
2023-05-25T11:48:05.169Z,19.59
2023-05-25T11:53:07.844Z,19.31
2023-05-25T11:58:10.556Z,19.22
2023-05-25T12:03:31.141Z,18.97
2023-05-25T12:08:35.317Z,18.78
2023-05-25T12:13:41.056Z,18.65
2023-05-25T12:18:43.821Z,18.80
2023-05-25T12:23:46.930Z,18.78
2023-05-25T12:29:10.236Z,18.70
2023-05-25T12:34:14.024Z,18.99
2023-05-25T12:39:18.032Z,19.16
2023-05-25T12:44:21.814Z,19.58
2023-05-25T12:49:34.460Z,19.90
2023-05-25T12:54:44.066Z,20.13
2023-05-25T12:59:47.783Z,20.37
2023-05-25T13:04:50.451Z,20.27
2023-05-25T13:09:53.417Z,19.90
2023-05-25T13:14:56.012Z,19.52
2023-05-25T13:19:58.694Z,19.43
2023-05-25T13:25:01.317Z,19.06
2023-05-25T13:30:07.280Z,19.50
2023-05-25T13:35:18.564Z,19.47
2023-05-25T13:40:21.567Z,19.70
2023-05-25T13:45:24.391Z,19.79
2023-05-25T13:50:27.193Z,19.71
2023-05-25T13:55:29.938Z,19.70
2023-05-25T14:00:33.130Z,19.52
2023-05-25T14:05:35.756Z,19.27
2023-05-25T14:10:39.081Z,19.24
2023-05-25T14:15:41.906Z,19.19
2023-05-25T14:20:44.842Z,19.74
2023-05-25T14:25:48.929Z,19.88
2023-05-25T14:30:51.867Z,20.06
2023-05-25T14:35:54.552Z,19.94
2023-05-25T14:40:57.241Z,19.70
2023-05-25T14:45:59.862Z,19.66
2023-05-25T14:51:04.052Z,19.62
2023-05-25T14:56:08.957Z,19.84
2023-05-25T15:01:13.474Z,20.23
2023-05-25T15:06:16.075Z,20.04
2023-05-25T15:11:19.014Z,20.33
2023-05-25T15:16:21.684Z,20.72
2023-05-25T15:21:26.845Z,20.74
2023-05-25T15:26:29.549Z,20.94
2023-05-25T15:31:32.170Z,21.52
2023-05-25T15:36:34.878Z,21.07
2023-05-25T15:41:37.564Z,21.21
2023-05-25T15:46:41.097Z,21.04
2023-05-25T15:51:44.629Z,21.02
2023-05-25T15:56:47.184Z,21.16
2023-05-25T16:01:49.901Z,21.20
2023-05-25T16:06:52.548Z,20.96
2023-05-25T16:11:55.154Z,20.97
2023-05-25T16:16:57.754Z,20.55
2023-05-25T16:22:00.409Z,20.39
2023-05-25T16:27:03.236Z,20.16
2023-05-25T16:32:06.746Z,20.01
2023-05-25T16:37:09.500Z,19.99
2023-05-25T16:42:12.154Z,19.89
2023-05-25T16:47:14.691Z,19.72
2023-05-25T16:52:17.311Z,19.58
2023-05-25T16:57:20.038Z,19.46
2023-05-25T17:02:22.715Z,19.46
2023-05-25T17:07:25.527Z,19.58
2023-05-25T17:12:28.174Z,19.56
2023-05-25T17:17:30.855Z,19.73
2023-05-25T17:22:33.468Z,19.53
2023-05-25T17:27:36.320Z,19.20
2023-05-25T17:32:41.077Z,18.99
2023-05-25T17:37:43.770Z,18.80
2023-05-25T17:42:46.617Z,18.55
2023-05-25T17:47:49.349Z,18.26
2023-05-25T17:52:52.062Z,18.00
2023-05-25T17:57:54.676Z,17.72
2023-05-25T18:02:57.437Z,17.41
2023-05-25T18:08:00.198Z,17.35
2023-05-25T18:13:03.103Z,17.06
2023-05-25T18:18:07.245Z,16.69
2023-05-25T18:23:10.105Z,16.70
2023-05-25T18:28:14.935Z,16.60
2023-05-25T18:33:17.824Z,16.27
2023-05-25T18:38:20.442Z,16.23
2023-05-25T18:43:23.204Z,16.06
2023-05-25T18:48:26.536Z,15.87
2023-05-25T18:53:29.363Z,15.75
2023-05-25T18:58:31.985Z,15.55
2023-05-25T19:03:34.696Z,15.51
2023-05-25T19:08:37.349Z,15.36
2023-05-25T19:13:41.196Z,15.25
2023-05-25T19:18:43.865Z,15.27
2023-05-25T19:23:46.473Z,15.19
2023-05-25T19:28:49.041Z,15.06
2023-05-25T19:33:51.682Z,14.99
2023-05-25T19:38:54.232Z,14.93
2023-05-25T19:43:56.868Z,14.80
2023-05-25T19:48:59.635Z,14.73
2023-05-25T19:54:02.183Z,14.47
2023-05-25T19:59:04.824Z,14.72
2023-05-25T20:04:07.609Z,14.73
2023-05-25T20:09:12.657Z,14.63
2023-05-25T20:14:15.645Z,14.56
2023-05-25T20:19:22.172Z,14.42
2023-05-25T20:24:24.762Z,14.41
2023-05-25T20:29:27.546Z,14.39
2023-05-25T20:34:30.667Z,14.30
2023-05-25T20:39:33.332Z,14.24
2023-05-25T20:44:36.431Z,14.05
2023-05-25T20:49:39.093Z,14.03
2023-05-25T20:54:48.307Z,13.95
2023-05-25T20:59:51.766Z,13.82
2023-05-25T21:04:54.617Z,13.82
2023-05-25T21:09:59.457Z,13.85
2023-05-25T21:15:02.195Z,13.75
2023-05-25T21:20:07.510Z,13.84
2023-05-25T21:25:10.571Z,13.71
2023-05-25T21:30:13.469Z,13.56
2023-05-25T21:35:18.172Z,13.47
2023-05-25T21:40:20.884Z,13.34
2023-05-25T21:45:23.538Z,13.14
2023-05-25T21:50:26.113Z,13.21
2023-05-25T21:55:28.905Z,13.13
2023-05-25T22:00:32.849Z,13.20
2023-05-25T22:05:36.619Z,13.18
2023-05-25T22:10:39.347Z,13.10
2023-05-25T22:15:41.954Z,13.19
2023-05-25T22:20:44.801Z,13.13
2023-05-25T22:25:47.643Z,13.24
2023-05-25T22:30:50.276Z,13.31
2023-05-25T22:35:52.888Z,13.42
2023-05-25T22:41:17.082Z,13.31
2023-05-25T22:46:20.713Z,13.23
2023-05-25T22:51:23.392Z,13.29
2023-05-25T22:56:27.489Z,13.18
2023-05-25T23:01:30.625Z,13.11
2023-05-25T23:06:33.340Z,13.03
2023-05-25T23:11:36.135Z,12.99
2023-05-25T23:16:38.892Z,12.81
2023-05-25T23:21:42.033Z,12.95
2023-05-25T23:26:44.626Z,12.83
2023-05-25T23:31:47.730Z,12.76
2023-05-25T23:36:53.931Z,12.73
2023-05-25T23:41:56.581Z,12.68
2023-05-25T23:46:59.138Z,12.58
2023-05-25T23:52:02.033Z,12.58
2023-05-25T23:57:04.988Z,12.52
